Time,TemperatureF,DewpointF,PressureIn,WindDirection,WindDirectionDegrees,WindSpeedMPH,WindSpeedGustMPH,Humidity,HourlyPrecipIn,Conditions,Clouds,dailyrainin,SoftwareType,DateUTC
2013-10-24 00:15:00,37.0,32.0,30.00,WNW,291,4.0,8.0,83,0.00,,,0.05,,2013-10-24 04:15:00,
2013-10-24 00:24:00,37.0,33.0,30.00,West,271,5.0,11.0,85,0.00,,,0.05,,2013-10-24 04:24:00,
2013-10-24 00:44:00,37.0,33.0,30.00,WNW,291,2.0,7.0,86,0.00,,,0.05,,2013-10-24 04:44:00,
2013-10-24 00:54:00,37.0,33.0,29.99,WSW,253,0.0,4.0,86,0.00,,,0.05,,2013-10-24 04:54:00,
2013-10-24 01:13:00,37.0,33.0,29.99,WSW,257,0.0,3.0,86,0.00,,,0.04,,2013-10-24 05:13:00,
2013-10-24 01:22:00,37.0,34.0,29.99,NW,323,0.0,5.0,87,0.00,,,0.04,,2013-10-24 05:22:00,
2013-10-24 01:43:00,37.0,33.0,29.99,WNW,291,0.0,3.0,86,0.00,,,0.04,,2013-10-24 05:43:00,
2013-10-24 01:53:00,37.0,34.0,29.99,SW,234,0.0,2.0,87,0.00,,,0.04,,2013-10-24 05:53:00,
2013-10-24 02:03:00,37.0,34.0,29.99,SW,234,0.0,2.0,87,0.00,,,0.04,,2013-10-24 06:03:00,
2013-10-24 02:12:00,37.0,34.0,29.99,SW,234,0.0,2.0,87,0.00,,,0.04,,2013-10-24 06:12:00,
2013-10-24 02:22:00,37.0,34.0,29.99,SW,232,0.0,5.0,88,0.00,,,0.04,,2013-10-24 06:22:00,
2013-10-24 02:42:00,37.0,34.0,29.99,WSW,249,1.0,6.0,88,0.00,,,0.04,,2013-10-24 06:42:00,
2013-10-24 02:52:00,36.0,33.0,29.99,WSW,255,1.0,6.0,88,0.00,,,0.04,,2013-10-24 06:52:00,
2013-10-24 03:12:00,36.0,32.0,29.99,SW,233,0.0,6.0,86,0.00,,,0.04,,2013-10-24 07:12:00,
2013-10-24 03:22:00,36.0,32.0,29.99,WSW,246,0.0,4.0,86,0.00,,,0.04,,2013-10-24 07:22:00,
2013-10-24 03:42:00,36.0,32.0,29.99,SW,234,0.0,6.0,86,0.00,,,0.04,,2013-10-24 07:42:00,
2013-10-24 03:52:00,36.0,32.0,29.99,WSW,245,0.0,6.0,86,0.00,,,0.04,,2013-10-24 07:52:00,
2013-10-24 04:02:00,36.0,32.0,29.99,WSW,245,0.0,6.0,86,0.00,,,0.04,,2013-10-24 08:02:00,
2013-10-24 04:11:00,36.0,32.0,29.99,WSW,245,0.0,6.0,86,0.00,,,0.04,,2013-10-24 08:11:00,
2013-10-24 04:22:00,36.0,32.0,29.99,WNW,289,1.0,5.0,85,0.00,,,0.04,,2013-10-24 08:22:00,
2013-10-24 04:32:00,36.0,32.0,29.99,WNW,289,1.0,5.0,85,0.00,,,0.04,,2013-10-24 08:32:00,
2013-10-24 04:42:00,36.0,32.0,29.99,WNW,289,1.0,5.0,85,0.00,,,0.04,,2013-10-24 08:42:00,
2013-10-24 04:53:00,36.0,32.0,29.99,West,265,0.0,4.0,86,0.00,,,0.04,,2013-10-24 08:53:00,
2013-10-24 05:12:00,36.0,32.0,29.99,NW,305,1.0,5.0,86,0.00,,,0.04,,2013-10-24 09:12:00,
2013-10-24 05:22:00,36.0,32.0,29.99,NW,304,1.0,7.0,86,0.00,,,0.04,,2013-10-24 09:22:00,
2013-10-24 05:43:00,35.0,31.0,30.00,West,267,0.0,3.0,86,0.00,,,0.04,,2013-10-24 09:43:00,
2013-10-24 05:53:00,35.0,31.0,30.00,WNW,300,1.0,4.0,86,0.00,,,0.04,,2013-10-24 09:53:00,
2013-10-24 06:13:00,35.0,31.0,30.00,WNW,282,0.0,6.0,86,0.00,,,0.04,,2013-10-24 10:13:00,
2013-10-24 06:23:00,35.0,31.0,30.01,West,268,1.0,5.0,86,0.00,,,0.04,,2013-10-24 10:23:00,
2013-10-24 06:43:00,35.0,32.0,30.01,WNW,284,0.0,6.0,87,0.00,,,0.04,,2013-10-24 10:43:00,
2013-10-24 06:52:00,35.0,32.0,30.01,WSW,244,0.0,5.0,87,0.00,,,0.04,,2013-10-24 10:52:00,
2013-10-24 07:12:00,34.0,31.0,30.02,WNW,286,0.0,3.0,87,0.00,,,0.04,,2013-10-24 11:12:00,
2013-10-24 07:22:00,34.0,31.0,30.02,WSW,248,0.0,5.0,88,0.00,,,0.04,,2013-10-24 11:22:00,
2013-10-24 07:42:00,34.0,31.0,30.02,WSW,244,1.0,6.0,88,0.00,,,0.04,,2013-10-24 11:42:00,
2013-10-24 07:53:00,34.0,31.0,30.02,WSW,248,1.0,4.0,88,0.00,,,0.04,,2013-10-24 11:53:00,
2013-10-24 08:12:00,34.0,31.0,30.02,WSW,242,1.0,7.0,88,0.00,,,0.04,,2013-10-24 12:12:00,
2013-10-24 08:22:00,34.0,31.0,30.03,WNW,302,1.0,7.0,88,0.00,,,0.04,,2013-10-24 12:22:00,
2013-10-24 08:42:00,34.0,31.0,30.03,WSW,242,2.0,6.0,88,0.00,,,0.04,,2013-10-24 12:42:00,
2013-10-24 08:52:00,34.0,31.0,30.03,NW,304,0.0,6.0,88,0.00,,,0.04,,2013-10-24 12:52:00,
2013-10-24 09:12:00,34.0,31.0,30.04,WSW,257,1.0,4.0,88,0.00,,,0.04,,2013-10-24 13:12:00,
2013-10-24 09:22:00,35.0,32.0,30.04,WSW,255,1.0,9.0,88,0.00,,,0.04,,2013-10-24 13:22:00,
2013-10-24 09:32:00,35.0,32.0,30.04,WSW,255,1.0,9.0,88,0.00,,,0.04,,2013-10-24 13:32:00,
2013-10-24 09:42:00,35.0,32.0,30.04,WSW,255,1.0,9.0,88,0.00,,,0.04,,2013-10-24 13:42:00,
2013-10-24 12:23:00,43.0,36.0,30.08,WNW,289,5.0,10.0,75,0.00,,,0.04,,2013-10-24 16:23:00,
2013-10-24 12:42:00,42.0,35.0,30.08,WNW,298,6.0,11.0,75,0.00,,,0.04,,2013-10-24 16:42:00,
2013-10-24 12:53:00,42.0,34.0,30.08,WNW,293,4.0,11.0,74,0.00,,,0.04,,2013-10-24 16:53:00,
2013-10-24 13:12:00,44.0,36.0,30.08,West,261,3.0,9.0,74,0.00,,,0.04,,2013-10-24 17:12:00,
2013-10-24 13:22:00,44.0,35.0,30.08,WNW,285,5.0,9.0,70,0.00,,,0.04,,2013-10-24 17:22:00,
2013-10-24 13:43:00,42.0,33.0,30.08,West,269,7.0,13.0,71,0.00,,,0.04,,2013-10-24 17:43:00,
2013-10-24 13:52:00,42.0,34.0,30.08,WNW,292,4.0,8.0,74,0.00,,,0.04,,2013-10-24 17:52:00,
2013-10-24 14:12:00,43.0,34.0,30.08,NNW,331,8.0,12.0,71,0.00,,,0.04,,2013-10-24 18:12:00,
2013-10-24 14:23:00,42.0,33.0,30.08,WNW,292,7.0,11.0,71,0.00,,,0.04,,2013-10-24 18:23:00,
2013-10-24 14:42:00,43.0,35.0,30.08,WNW,283,5.0,13.0,74,0.00,,,0.04,,2013-10-24 18:42:00,
2013-10-24 14:53:00,43.0,35.0,30.08,WNW,300,4.0,9.0,72,0.00,,,0.04,,2013-10-24 18:53:00,
2013-10-24 15:12:00,43.0,35.0,30.08,West,281,7.0,17.0,73,0.00,,,0.04,,2013-10-24 19:12:00,
2013-10-24 15:22:00,42.0,35.0,30.09,West,277,4.0,10.0,77,0.00,,,0.04,,2013-10-24 19:22:00,
2013-10-24 15:43:00,42.0,35.0,30.09,WNW,288,5.0,11.0,76,0.00,,,0.04,,2013-10-24 19:43:00,
2013-10-24 15:53:00,42.0,35.0,30.09,SW,224,4.0,10.0,75,0.00,,,0.04,,2013-10-24 19:53:00,
2013-10-24 16:11:00,42.0,34.0,30.10,West,274,6.0,12.0,74,0.00,,,0.04,,2013-10-24 20:11:00,
2013-10-24 16:23:00,44.0,34.0,30.10,WNW,298,9.0,14.0,68,0.00,,,0.04,,2013-10-24 20:23:00,
2013-10-24 16:43:00,43.0,34.0,30.11,NW,321,8.0,13.0,71,0.00,,,0.04,,2013-10-24 20:43:00,
2013-10-24 16:53:00,43.0,34.0,30.11,West,280,5.0,12.0,71,0.00,,,0.04,,2013-10-24 20:53:00,
2013-10-24 17:12:00,43.0,35.0,30.11,WNW,300,5.0,11.0,72,0.00,,,0.01,,2013-10-24 21:12:00,
2013-10-24 17:22:00,42.0,35.0,30.12,WNW,288,8.0,13.0,75,0.00,,,0.01,,2013-10-24 21:22:00,
2013-10-24 17:43:00,40.0,35.0,30.13,West,268,5.0,11.0,81,0.00,,,0.01,,2013-10-24 21:43:00,
2013-10-24 17:54:00,40.0,35.0,30.13,West,270,3.0,10.0,82,0.00,,,0.01,,2013-10-24 21:54:00,
2013-10-24 18:14:00,42.0,35.0,30.13,WNW,295,6.0,9.0,77,0.00,,,0.00,,2013-10-24 22:14:00,
2013-10-24 18:24:00,41.0,35.0,30.14,WNW,303,3.0,8.0,80,0.00,,,0.00,,2013-10-24 22:24:00,
2013-10-24 18:43:00,41.0,35.0,30.14,WNW,290,4.0,7.0,79,0.00,,,0.00,,2013-10-24 22:43:00,
2013-10-24 18:54:00,40.0,34.0,30.15,WNW,293,3.0,7.0,80,0.00,,,0.00,,2013-10-24 22:54:00,
2013-10-24 19:03:00,40.0,34.0,30.15,WNW,293,3.0,7.0,80,0.00,,,0.00,,2013-10-24 23:03:00,
2013-10-24 19:13:00,40.0,34.0,30.15,WNW,293,3.0,7.0,80,0.00,,,0.00,,2013-10-24 23:13:00,
2013-10-24 19:22:00,39.0,34.0,30.16,WNW,301,3.0,7.0,81,0.00,,,0.00,,2013-10-24 23:22:00,
2013-10-24 19:43:00,38.0,33.0,30.17,WNW,301,4.0,7.0,82,0.00,,,0.00,,2013-10-24 23:43:00,
2013-10-24 19:53:00,38.0,33.0,30.18,WNW,290,5.0,12.0,83,0.00,,,0.00,,2013-10-24 23:53:00,
2013-10-24 20:12:00,37.0,33.0,30.19,WNW,292,2.0,6.0,84,0.00,,,0.00,,2013-10-25 00:12:00,
2013-10-24 20:22:00,36.0,32.0,30.19,WNW,296,2.0,5.0,86,0.00,,,0.00,,2013-10-25 00:22:00,
2013-10-24 20:42:00,36.0,33.0,30.19,WNW,296,3.0,6.0,87,0.00,,,0.00,,2013-10-25 00:42:00,
2013-10-24 20:52:00,36.0,33.0,30.20,WNW,298,2.0,7.0,87,0.00,,,0.00,,2013-10-25 00:52:00,
2013-10-24 21:12:00,35.0,32.0,30.20,WNW,298,1.0,4.0,88,0.00,,,0.00,,2013-10-25 01:12:00,
2013-10-24 21:22:00,36.0,33.0,30.20,WNW,298,0.0,4.0,90,0.00,,,0.00,,2013-10-25 01:22:00,
2013-10-24 21:43:00,36.0,33.0,30.20,WNW,298,2.0,5.0,89,0.00,,,0.00,,2013-10-25 01:43:00,
2013-10-24 21:53:00,36.0,33.0,30.21,WNW,299,1.0,6.0,89,0.00,,,0.00,,2013-10-25 01:53:00,
2013-10-24 22:12:00,36.0,33.0,30.21,WNW,298,2.0,5.0,89,0.00,,,0.00,,2013-10-25 02:12:00,
2013-10-24 22:23:00,36.0,33.0,30.22,WNW,298,2.0,5.0,89,0.00,,,0.00,,2013-10-25 02:23:00,
2013-10-24 22:43:00,37.0,34.0,30.22,WNW,298,2.0,5.0,89,0.00,,,0.00,,2013-10-25 02:43:00,
2013-10-24 22:52:00,37.0,34.0,30.22,WNW,297,2.0,5.0,89,0.00,,,0.00,,2013-10-25 02:52:00,
2013-10-24 23:12:00,36.0,33.0,30.23,WNW,297,1.0,5.0,89,0.00,,,0.00,,2013-10-25 03:12:00,
2013-10-24 23:23:00,36.0,33.0,30.23,WNW,297,0.0,3.0,90,0.00,,,0.00,,2013-10-25 03:23:00,
2013-10-24 23:44:00,36.0,33.0,30.23,WNW,297,1.0,5.0,89,0.00,,,0.00,,2013-10-25 03:44:00,
2013-10-24 23:54:00,35.0,32.0,30.24,WNW,298,1.0,4.0,89,0.00,,,0.00,,2013-10-25 03:54:00,